createdAt,value
2019-03-12T00:01:58.776Z,55.25
2019-03-12T00:04:29.382Z,55.23
2019-03-12T00:07:00.162Z,55.26
2019-03-12T00:09:30.796Z,55.29
2019-03-12T00:12:01.108Z,55.27
2019-03-12T00:14:32.913Z,55.28
2019-03-12T00:17:03.303Z,55.26
2019-03-12T00:19:33.855Z,55.28
2019-03-12T00:22:04.801Z,55.26
2019-03-12T00:24:36.182Z,55.29
2019-03-12T00:27:06.767Z,55.31
2019-03-12T00:29:37.053Z,55.32
2019-03-12T00:32:07.635Z,55.39
2019-03-12T00:34:38.260Z,55.40
2019-03-12T00:37:08.565Z,55.41
2019-03-12T00:39:39.189Z,55.40
2019-03-12T00:42:09.821Z,55.39
2019-03-12T00:44:40.445Z,55.40
2019-03-12T00:47:11.117Z,55.39
2019-03-12T00:49:42.647Z,55.42
2019-03-12T00:52:13.304Z,55.45
2019-03-12T00:54:44.795Z,55.45
2019-03-12T00:57:15.521Z,55.49
2019-03-12T00:59:45.819Z,55.51
2019-03-12T01:02:16.451Z,55.56
2019-03-12T01:04:48.023Z,55.59
2019-03-12T01:07:18.235Z,55.63
2019-03-12T01:09:50.009Z,55.68
2019-03-12T01:12:20.632Z,55.71
2019-03-12T01:14:50.914Z,55.74
2019-03-12T01:17:21.519Z,55.82
2019-03-12T01:19:51.817Z,55.85
2019-03-12T01:22:22.408Z,55.89
2019-03-12T01:24:52.680Z,55.89
2019-03-12T01:27:22.943Z,55.89
2019-03-12T01:29:53.154Z,55.91
2019-03-12T01:32:23.372Z,55.97
2019-03-12T01:34:53.596Z,55.97
2019-03-12T01:37:23.882Z,55.99
2019-03-12T01:39:55.087Z,56.03
2019-03-12T01:42:25.682Z,56.04
2019-03-12T01:44:56.329Z,56.06
2019-03-12T01:47:26.622Z,56.08
2019-03-12T01:49:56.837Z,56.09
2019-03-12T01:52:27.425Z,56.12
2019-03-12T01:54:57.717Z,56.12
2019-03-12T01:57:28.058Z,56.15
2019-03-12T01:59:58.284Z,56.16
2019-03-12T02:02:28.725Z,56.20
2019-03-12T02:05:00.381Z,56.23
2019-03-12T02:07:30.848Z,56.25
2019-03-12T02:10:01.098Z,56.26
2019-03-12T02:12:32.052Z,56.27
2019-03-12T02:15:02.730Z,56.28
2019-03-12T02:17:33.759Z,56.31
2019-03-12T02:20:07.215Z,56.35
2019-03-12T02:22:37.861Z,56.37
2019-03-12T02:25:13.255Z,56.38
2019-03-12T02:27:43.549Z,56.44
2019-03-12T02:30:16.652Z,56.45
2019-03-12T02:32:47.227Z,56.45
2019-03-12T02:35:18.412Z,56.47
2019-03-12T02:37:48.704Z,56.49
2019-03-12T02:40:19.691Z,56.51
2019-03-12T02:42:49.980Z,56.54
2019-03-12T02:45:20.361Z,56.55
2019-03-12T02:47:50.943Z,56.58
2019-03-12T02:50:21.298Z,56.61
2019-03-12T02:52:51.507Z,56.63
2019-03-12T02:55:21.733Z,56.66
2019-03-12T02:57:51.952Z,56.69
2019-03-12T03:00:24.282Z,56.73
2019-03-12T03:02:54.888Z,56.73
2019-03-12T03:05:25.141Z,56.77
2019-03-12T03:07:56.718Z,56.82
2019-03-12T03:10:27.008Z,56.83
2019-03-12T03:12:57.423Z,56.86
2019-03-12T03:15:40.002Z,56.88
2019-03-12T03:18:10.821Z,56.91
2019-03-12T03:20:41.686Z,56.95
2019-03-12T03:23:11.986Z,57.01
2019-03-12T03:25:42.228Z,57.04
2019-03-12T03:28:12.476Z,57.09
2019-03-12T03:30:42.709Z,57.13
2019-03-12T03:33:12.948Z,57.15
2019-03-12T03:35:43.160Z,57.20
2019-03-12T03:38:13.406Z,57.27
2019-03-12T03:40:43.624Z,57.33
2019-03-12T03:43:13.940Z,57.40
2019-03-12T03:45:44.185Z,57.46
2019-03-12T03:48:14.750Z,57.53
2019-03-12T03:50:45.062Z,57.61
2019-03-12T03:53:15.283Z,57.68
2019-03-12T03:55:45.552Z,57.74
2019-03-12T03:58:15.771Z,57.76
2019-03-12T04:00:45.994Z,57.80
2019-03-12T04:03:16.241Z,57.81
2019-03-12T04:05:46.486Z,57.86
2019-03-12T04:08:16.767Z,57.84
2019-03-12T04:10:47.218Z,57.88
2019-03-12T04:13:17.819Z,57.90
2019-03-12T04:15:48.713Z,57.90
2019-03-12T04:18:19.009Z,57.94
2019-03-12T04:20:49.727Z,57.95
2019-03-12T04:23:20.356Z,57.95
2019-03-12T04:25:50.663Z,57.94
2019-03-12T04:28:20.987Z,57.92
2019-03-12T04:30:51.260Z,57.93
2019-03-12T04:33:55.122Z,57.94
2019-03-12T04:36:25.462Z,57.93
2019-03-12T04:38:55.668Z,57.97
2019-03-12T04:41:25.968Z,57.97
2019-03-12T04:43:56.204Z,57.98
2019-03-12T04:46:26.421Z,58.00
2019-03-12T04:48:56.644Z,58.01
2019-03-12T04:51:27.215Z,58.06
2019-03-12T04:53:57.505Z,58.07
2019-03-12T04:56:27.726Z,58.10
2019-03-12T04:58:57.951Z,58.09
2019-03-12T05:01:28.179Z,58.10
2019-03-12T05:03:58.420Z,58.10
2019-03-12T05:06:28.638Z,58.10
2019-03-12T05:08:58.860Z,58.11
2019-03-12T05:11:29.092Z,58.13
2019-03-12T05:14:24.629Z,58.17
2019-03-12T05:17:02.407Z,58.19
2019-03-12T05:19:33.007Z,58.23
2019-03-12T05:22:03.303Z,58.27
2019-03-12T05:24:33.943Z,58.32
2019-03-12T05:27:04.574Z,58.35
2019-03-12T05:29:35.229Z,58.39
2019-03-12T05:32:05.566Z,58.40
2019-03-12T05:34:36.200Z,58.43
2019-03-12T05:37:07.986Z,58.46
2019-03-12T05:39:38.214Z,58.51
2019-03-12T05:42:08.803Z,58.56
2019-03-12T05:44:39.474Z,58.59
2019-03-12T05:47:09.862Z,58.62
2019-03-12T05:49:40.428Z,58.65
2019-03-12T05:52:11.051Z,58.67
2019-03-12T05:54:41.357Z,58.70
2019-03-12T05:57:11.917Z,58.74
2019-03-12T05:59:42.196Z,58.77
2019-03-12T06:02:12.779Z,58.76
2019-03-12T06:04:43.416Z,58.77
2019-03-12T06:07:13.707Z,58.79
2019-03-12T06:09:44.353Z,58.80
2019-03-12T06:12:16.520Z,58.82
2019-03-12T06:14:47.170Z,58.83
2019-03-12T06:17:18.086Z,58.87
2019-03-12T06:19:48.766Z,58.86
2019-03-12T06:22:19.313Z,58.88
2019-03-12T06:24:49.586Z,58.87
2019-03-12T06:27:20.147Z,58.87
2019-03-12T06:29:50.579Z,58.87
2019-03-12T06:32:28.219Z,58.90
2019-03-12T06:35:00.387Z,58.90
2019-03-12T06:37:41.260Z,58.91
2019-03-12T06:40:28.510Z,58.92
2019-03-12T06:43:06.070Z,58.94
2019-03-12T06:45:43.962Z,58.92
2019-03-12T06:48:18.618Z,58.90
2019-03-12T06:50:50.486Z,58.89
2019-03-12T06:53:28.678Z,58.89
2019-03-12T06:56:15.301Z,58.90
2019-03-12T06:59:03.330Z,58.87
2019-03-12T07:01:33.766Z,58.87
2019-03-12T07:04:11.462Z,58.84
2019-03-12T07:06:45.037Z,58.82
2019-03-12T07:09:22.619Z,58.80
2019-03-12T07:11:56.952Z,58.81
2019-03-12T07:14:28.417Z,58.79
2019-03-12T07:17:15.468Z,58.78
2019-03-12T07:19:50.501Z,58.75
2019-03-12T07:22:31.613Z,58.74
2019-03-12T07:25:04.671Z,58.74
2019-03-12T07:27:43.166Z,58.71
2019-03-12T07:30:18.327Z,58.70
2019-03-12T07:32:56.130Z,58.68
2019-03-12T07:35:26.832Z,58.61
2019-03-12T07:38:02.179Z,58.51
2019-03-12T07:40:50.502Z,58.46
2019-03-12T07:43:21.022Z,58.39
2019-03-12T07:45:52.967Z,58.37
2019-03-12T07:48:24.842Z,58.35
2019-03-12T07:51:11.674Z,58.28
2019-03-12T07:53:58.960Z,58.22
2019-03-12T07:56:31.948Z,58.18
2019-03-12T07:59:03.822Z,58.20
2019-03-12T08:01:36.053Z,58.26
2019-03-12T08:04:14.210Z,58.26
2019-03-12T08:06:46.472Z,58.17
2019-03-12T08:09:24.211Z,58.05
2019-03-12T08:12:02.604Z,57.92
2019-03-12T08:14:44.247Z,57.80
2019-03-12T08:17:34.550Z,57.60
2019-03-12T08:20:15.199Z,57.40
2019-03-12T08:22:53.285Z,57.17
2019-03-12T08:25:43.735Z,56.98
2019-03-12T08:28:17.982Z,56.81
2019-03-12T08:30:53.004Z,56.64
2019-03-12T08:33:30.805Z,56.50
2019-03-12T08:36:18.449Z,56.44
2019-03-12T08:39:06.924Z,56.41
2019-03-12T08:41:42.936Z,56.16
2019-03-12T08:44:26.611Z,55.88
2019-03-12T08:46:58.572Z,55.63
2019-03-12T08:49:34.739Z,55.51
2019-03-12T08:52:05.722Z,55.34
2019-03-12T08:54:54.557Z,55.01
2019-03-12T08:57:28.816Z,54.93
2019-03-12T09:00:00.703Z,54.91
2019-03-12T09:02:32.577Z,54.79
2019-03-12T09:05:22.910Z,54.56
2019-03-12T09:08:00.982Z,54.48
2019-03-12T09:10:32.897Z,54.50
2019-03-12T09:13:05.126Z,54.40
2019-03-12T09:15:40.160Z,54.13
2019-03-12T09:18:14.884Z,53.86
2019-03-12T09:21:01.856Z,53.63
2019-03-12T09:23:41.107Z,53.42
2019-03-12T09:26:24.959Z,53.22
2019-03-12T09:28:56.883Z,53.07
2019-03-12T09:31:29.537Z,52.93
2019-03-12T09:34:04.492Z,52.84
2019-03-12T09:36:47.121Z,52.78
2019-03-12T09:39:32.378Z,52.71
2019-03-12T09:42:06.169Z,52.66
2019-03-12T09:44:54.752Z,52.58
2019-03-12T09:47:27.023Z,52.51
2019-03-12T09:50:02.157Z,52.41
2019-03-12T09:52:51.565Z,52.37
2019-03-12T09:55:23.839Z,52.35
2019-03-12T09:58:02.752Z,52.36
2019-03-12T10:00:38.995Z,52.36
2019-03-12T10:03:28.006Z,52.33
2019-03-12T10:06:00.052Z,52.29
2019-03-12T10:08:48.273Z,52.17
2019-03-12T10:11:36.262Z,52.31
2019-03-12T10:14:09.091Z,52.35
2019-03-12T10:16:50.051Z,52.18
2019-03-12T10:19:32.132Z,52.07
2019-03-12T10:22:05.063Z,51.95
2019-03-12T10:24:53.747Z,51.83
2019-03-12T10:27:42.084Z,51.75
2019-03-12T10:30:20.164Z,51.71
2019-03-12T10:32:57.906Z,51.74
2019-03-12T10:35:29.785Z,51.70
2019-03-12T10:38:45.211Z,51.66
2019-03-12T10:41:22.553Z,51.63
2019-03-12T10:43:55.598Z,51.52
2019-03-12T10:46:30.131Z,51.42
2019-03-12T10:49:00.611Z,51.31
2019-03-12T10:51:30.840Z,51.22
2019-03-12T10:54:02.170Z,51.15
2019-03-12T10:56:32.386Z,51.07
2019-03-12T10:59:02.626Z,51.03
2019-03-12T11:01:33.000Z,51.00
2019-03-12T11:04:03.239Z,51.01
2019-03-12T11:06:33.454Z,51.03
2019-03-12T11:09:05.459Z,51.01
2019-03-12T11:11:37.669Z,50.97
2019-03-12T11:14:08.520Z,50.89
2019-03-12T11:16:39.129Z,50.84
2019-03-12T11:19:09.410Z,50.73
2019-03-12T11:21:40.087Z,50.67
2019-03-12T11:24:10.902Z,50.69
2019-03-12T11:26:41.521Z,50.63
2019-03-12T11:29:12.197Z,50.52
2019-03-12T11:31:42.849Z,50.46
2019-03-12T11:34:13.144Z,50.39
2019-03-12T11:36:43.396Z,50.30
2019-03-12T11:39:14.105Z,50.22
2019-03-12T11:41:44.863Z,50.12
2019-03-12T11:44:15.494Z,50.03
2019-03-12T11:46:46.440Z,49.95
2019-03-12T11:49:17.182Z,49.91
2019-03-12T11:51:47.889Z,49.87
2019-03-12T11:54:18.782Z,49.79
2019-03-12T11:56:49.034Z,49.72
2019-03-12T11:59:19.237Z,49.61
2019-03-12T12:01:49.626Z,49.52
2019-03-12T12:04:20.242Z,49.46
2019-03-12T12:06:50.603Z,49.38
2019-03-12T12:09:21.601Z,49.27
2019-03-12T12:11:51.924Z,49.20
2019-03-12T12:14:22.615Z,49.09
2019-03-12T12:16:54.016Z,49.03
2019-03-12T12:19:24.454Z,48.98
2019-03-12T12:21:55.123Z,48.98
2019-03-12T12:24:26.743Z,48.97
2019-03-12T12:26:57.446Z,48.94
2019-03-12T12:29:28.169Z,48.88
2019-03-12T12:31:58.600Z,48.82
2019-03-12T12:34:29.126Z,48.75
2019-03-12T12:36:59.823Z,48.68
2019-03-12T12:39:30.478Z,48.63
2019-03-12T12:42:00.982Z,48.57
2019-03-12T12:44:31.316Z,48.50
2019-03-12T12:47:03.337Z,48.45
2019-03-12T12:49:33.968Z,48.41
2019-03-12T12:52:04.243Z,48.36
2019-03-12T12:54:34.849Z,48.29
2019-03-12T12:57:05.194Z,48.26
2019-03-12T12:59:35.422Z,48.23
2019-03-12T13:02:06.371Z,48.25
2019-03-12T13:04:36.917Z,48.24
2019-03-12T13:07:07.585Z,48.22
2019-03-12T13:09:38.237Z,48.22
2019-03-12T13:12:08.511Z,48.20
2019-03-12T13:14:41.693Z,48.12
2019-03-12T13:17:11.433Z,48.09
2019-03-12T13:19:41.890Z,48.00
2019-03-12T13:22:12.492Z,47.92
2019-03-12T13:24:42.825Z,47.83
2019-03-12T13:27:13.037Z,47.77
2019-03-12T13:29:43.344Z,47.73
2019-03-12T13:32:14.161Z,47.67
2019-03-12T13:34:45.428Z,47.65
2019-03-12T13:37:15.838Z,47.60
2019-03-12T13:39:46.068Z,47.58
2019-03-12T13:42:16.493Z,47.50
2019-03-12T13:44:47.049Z,47.46
2019-03-12T13:47:17.696Z,47.42
2019-03-12T13:49:48.336Z,47.39
2019-03-12T13:52:18.730Z,47.33
2019-03-12T13:54:49.100Z,47.28
2019-03-12T13:57:19.328Z,47.22
2019-03-12T13:59:49.950Z,47.17
2019-03-12T14:02:22.212Z,47.12
2019-03-12T14:04:52.847Z,47.08
2019-03-12T14:07:23.459Z,47.02
2019-03-12T14:09:54.219Z,46.99
2019-03-12T14:12:24.520Z,46.94
2019-03-12T14:14:54.812Z,46.89
2019-03-12T14:17:25.063Z,46.82
2019-03-12T14:19:55.325Z,46.79
2019-03-12T14:22:26.941Z,46.73
2019-03-12T14:24:57.241Z,46.68
2019-03-12T14:27:27.457Z,46.63
2019-03-12T14:29:58.060Z,46.61
2019-03-12T14:32:28.326Z,46.54
2019-03-12T14:35:00.527Z,46.51
2019-03-12T14:37:30.727Z,46.45
2019-03-12T14:40:01.315Z,46.39
2019-03-12T14:42:31.883Z,46.38
2019-03-12T14:45:02.116Z,46.36
2019-03-12T14:47:36.035Z,46.34
2019-03-12T14:50:15.061Z,46.31
2019-03-12T14:53:07.514Z,46.31
2019-03-12T14:55:37.750Z,46.33
2019-03-12T14:58:08.332Z,46.30
2019-03-12T15:00:40.647Z,46.27
2019-03-12T15:03:21.157Z,46.23
2019-03-12T15:05:51.366Z,46.17
2019-03-12T15:08:21.596Z,46.12
2019-03-12T15:10:52.173Z,46.05
2019-03-12T15:13:22.467Z,46.02
2019-03-12T15:15:52.689Z,46.00
2019-03-12T15:18:23.012Z,45.98
2019-03-12T15:20:53.215Z,45.96
2019-03-12T15:23:23.601Z,45.94
2019-03-12T15:25:53.961Z,45.94
2019-03-12T15:28:24.152Z,45.93
2019-03-12T15:30:54.709Z,45.91
2019-03-12T15:33:25.362Z,45.91
2019-03-12T15:35:56.205Z,45.88
2019-03-12T15:38:26.504Z,45.87
2019-03-12T15:40:57.712Z,45.86
2019-03-12T15:43:28.037Z,45.84
2019-03-12T15:45:58.267Z,45.81
2019-03-12T15:48:28.484Z,45.81
2019-03-12T15:50:58.784Z,45.79
2019-03-12T15:53:30.387Z,45.78
2019-03-12T15:56:00.702Z,45.78
2019-03-12T15:58:30.903Z,45.76
2019-03-12T16:01:02.665Z,45.76
2019-03-12T16:03:34.022Z,45.76
2019-03-12T16:06:04.316Z,45.76
2019-03-12T16:08:43.998Z,45.77
2019-03-12T16:11:14.304Z,45.75
2019-03-12T16:13:44.866Z,45.76
2019-03-12T16:16:16.383Z,45.75
2019-03-12T16:18:47.132Z,45.76
2019-03-12T16:21:17.751Z,45.75
2019-03-12T16:23:48.058Z,45.74
2019-03-12T16:26:18.644Z,45.73
2019-03-12T16:28:49.279Z,45.70
2019-03-12T16:31:19.936Z,45.68
2019-03-12T16:33:50.739Z,45.68
2019-03-12T16:36:21.101Z,45.67
2019-03-12T16:38:51.676Z,45.68
2019-03-12T16:41:22.295Z,45.68
2019-03-12T16:43:52.995Z,45.69
2019-03-12T16:46:23.635Z,45.67
2019-03-12T16:48:54.327Z,45.68
2019-03-12T16:51:24.609Z,45.70
2019-03-12T16:53:54.859Z,45.71
2019-03-12T16:56:25.099Z,45.73
2019-03-12T16:58:55.370Z,45.74
2019-03-12T17:01:25.597Z,45.75
2019-03-12T17:03:56.171Z,45.77
2019-03-12T17:06:26.837Z,45.77
2019-03-12T17:08:57.499Z,45.79
2019-03-12T17:11:27.811Z,45.79
2019-03-12T17:13:58.380Z,45.82
2019-03-12T17:16:28.663Z,45.81
2019-03-12T17:18:58.897Z,45.83
2019-03-12T17:21:29.101Z,45.84
2019-03-12T17:23:59.627Z,45.85
2019-03-12T17:26:29.843Z,45.89
2019-03-12T17:29:00.431Z,45.92
2019-03-12T17:31:30.714Z,45.92
2019-03-12T17:34:01.350Z,45.93
2019-03-12T17:36:31.980Z,45.95
2019-03-12T17:39:02.727Z,45.97
2019-03-12T17:41:34.647Z,45.97
2019-03-12T17:44:04.977Z,46.02
2019-03-12T17:46:35.230Z,46.05
2019-03-12T17:49:05.511Z,46.06
2019-03-12T17:51:35.771Z,46.07
2019-03-12T17:54:06.013Z,46.09
2019-03-12T17:56:36.244Z,46.12
2019-03-12T17:59:06.489Z,46.13
2019-03-12T18:01:37.059Z,46.15
2019-03-12T18:04:07.409Z,46.18
2019-03-12T18:06:37.646Z,46.19
2019-03-12T18:09:08.931Z,46.22
2019-03-12T18:11:41.653Z,46.24
2019-03-12T18:14:12.245Z,46.26
2019-03-12T18:16:42.533Z,46.27
2019-03-12T18:19:13.153Z,46.29
2019-03-12T18:21:43.760Z,46.33
2019-03-12T18:24:14.051Z,46.34
2019-03-12T18:26:44.363Z,46.36
2019-03-12T18:29:14.582Z,46.38
2019-03-12T18:31:44.840Z,46.41
2019-03-12T18:34:15.489Z,46.43
2019-03-12T18:36:45.793Z,46.45
2019-03-12T18:39:16.029Z,46.47
2019-03-12T18:41:46.313Z,46.49
2019-03-12T18:44:16.606Z,46.52
2019-03-12T18:46:46.904Z,46.55
2019-03-12T18:49:17.213Z,46.55
2019-03-12T18:51:47.973Z,46.60
2019-03-12T18:54:18.238Z,46.62
2019-03-12T18:56:48.463Z,46.65
2019-03-12T18:59:20.387Z,46.68
2019-03-12T19:01:50.686Z,46.70
2019-03-12T19:04:20.967Z,46.73
2019-03-12T19:06:51.229Z,46.77
2019-03-12T19:09:21.920Z,46.77
2019-03-12T19:11:52.507Z,46.80
2019-03-12T19:14:23.457Z,46.81
2019-03-12T19:16:53.759Z,46.86
2019-03-12T19:19:24.002Z,46.89
2019-03-12T19:21:54.349Z,46.91
2019-03-12T19:24:24.687Z,46.94
2019-03-12T19:26:54.920Z,46.96
2019-03-12T19:29:27.976Z,46.98
2019-03-12T19:31:59.964Z,47.02
2019-03-12T19:34:31.510Z,47.06
2019-03-12T19:37:02.040Z,47.08
2019-03-12T19:39:32.757Z,47.10
2019-03-12T19:42:03.175Z,47.12
2019-03-12T19:44:33.381Z,47.15
2019-03-12T19:47:04.732Z,47.17
2019-03-12T19:49:35.951Z,47.21
2019-03-12T19:52:06.938Z,47.23
2019-03-12T19:54:37.486Z,47.26
2019-03-12T19:57:07.763Z,47.28
2019-03-12T19:59:38.293Z,47.31
2019-03-12T20:02:15.996Z,47.36
2019-03-12T20:04:47.416Z,47.38
2019-03-12T20:07:15.493Z,47.40
2019-03-12T20:09:48.954Z,47.45
2019-03-12T20:12:51.341Z,47.49
2019-03-12T20:15:33.884Z,47.51
2019-03-12T20:18:13.255Z,47.56
2019-03-12T20:21:13.771Z,47.57
2019-03-12T20:24:18.436Z,47.61
2019-03-12T20:27:07.973Z,47.67
2019-03-12T20:30:03.940Z,47.71
2019-03-12T20:33:09.380Z,47.73
2019-03-12T20:35:59.852Z,47.74
2019-03-12T20:39:01.208Z,47.80
2019-03-12T20:41:50.886Z,47.84
2019-03-12T20:44:59.447Z,47.88
2019-03-12T20:47:38.366Z,47.90
2019-03-12T20:50:49.601Z,47.94
2019-03-12T20:53:57.959Z,47.99
2019-03-12T20:56:54.001Z,48.03
2019-03-12T21:00:00.630Z,48.06
2019-03-12T21:03:09.142Z,48.12
2019-03-12T21:05:59.182Z,48.17
2019-03-12T21:09:05.680Z,48.21
2019-03-12T21:11:49.147Z,48.25
2019-03-12T21:14:41.950Z,48.29
2019-03-12T21:17:45.788Z,48.31
2019-03-12T21:20:19.248Z,48.35
2019-03-12T21:23:29.463Z,48.38
2019-03-12T21:26:19.482Z,48.42
2019-03-12T21:29:17.444Z,48.48
2019-03-12T21:31:47.736Z,48.54
2019-03-12T21:34:18.498Z,48.60
2019-03-12T21:36:49.240Z,48.61
2019-03-12T21:39:19.529Z,48.66
2019-03-12T21:41:50.121Z,48.71
2019-03-12T21:44:20.683Z,48.77
2019-03-12T21:46:50.959Z,48.83
2019-03-12T21:49:21.222Z,48.88
2019-03-12T21:51:51.553Z,48.91
2019-03-12T21:54:21.797Z,48.97
2019-03-12T21:56:52.113Z,49.08
2019-03-12T21:59:23.618Z,49.13
2019-03-12T22:01:54.257Z,49.19
2019-03-12T22:04:24.596Z,49.27
2019-03-12T22:06:55.195Z,49.32
2019-03-12T22:09:25.552Z,49.42
2019-03-12T22:11:56.156Z,49.46
2019-03-12T22:14:26.546Z,49.52
2019-03-12T22:16:57.940Z,49.57
2019-03-12T22:19:28.523Z,49.59
2019-03-12T22:22:06.279Z,49.62
2019-03-12T22:24:36.855Z,49.67
2019-03-12T22:27:07.574Z,49.72
2019-03-12T22:29:38.223Z,49.75
2019-03-12T22:32:08.551Z,49.79
2019-03-12T22:34:39.124Z,49.83
2019-03-12T22:37:09.890Z,49.86
2019-03-12T22:39:40.529Z,49.88
2019-03-12T22:42:10.882Z,49.91
2019-03-12T22:44:42.361Z,49.96
2019-03-12T22:47:12.838Z,50.00
2019-03-12T22:49:43.452Z,50.02
2019-03-12T22:52:13.746Z,50.07
2019-03-12T22:54:44.494Z,50.11
2019-03-12T22:57:15.168Z,50.15
2019-03-12T23:00:05.327Z,50.20
2019-03-12T23:02:53.797Z,50.21
2019-03-12T23:05:42.005Z,50.26
2019-03-12T23:08:29.955Z,50.30
2019-03-12T23:11:03.026Z,50.32
2019-03-12T23:13:34.143Z,50.32
2019-03-12T23:16:05.267Z,50.37
2019-03-12T23:18:36.054Z,50.40
2019-03-12T23:21:06.948Z,50.46
2019-03-12T23:23:38.528Z,50.48
2019-03-12T23:26:09.123Z,50.51
2019-03-12T23:28:40.907Z,50.53
2019-03-12T23:31:12.369Z,50.57
2019-03-12T23:33:42.667Z,50.62
2019-03-12T23:36:12.919Z,50.64
2019-03-12T23:38:45.327Z,50.68
2019-03-12T23:41:16.174Z,50.72
2019-03-12T23:43:46.880Z,50.75
2019-03-12T23:46:17.191Z,50.80
2019-03-12T23:48:47.464Z,50.84
2019-03-12T23:51:17.725Z,50.89
2019-03-12T23:53:48.345Z,50.89
2019-03-12T23:56:19.068Z,50.94
2019-03-12T23:58:49.766Z,50.98
